Terminal Aerodrome Forecast
Issued by NWS Paducah, KY

Home | Current Version | Previous Version | Text Only | Print | Product List | Glossary On
Versions: 1 2 3 4 5 6 7 8 9 10 11 12 13 14
000
FTUS43 KPAH 292205 AAB
TAFPAH
TAF AMD
KPAH 292205Z 2922/3018 32015G23KT P6SM VCTS SCT035 BKN050CB
      TEMPO 2922/2923 34016G34KT 1 1/2SM TSRA BR BKN035 OVC060CB
     FM300000 36009KT P6SM SCT040 BKN250=

USA.gov is the U.S. government's official web portal to all federal, state and local government web resources and services.